sensor_id;sensor_type;location;lat;lon;timestamp;P1;durP1;ratioP1;P2;durP2;ratioP2
29878;SDS011;16752;53.364;-1.488;2023-06-22T00:01:51;5.22;;;4.72;;
29878;SDS011;16752;53.364;-1.488;2023-06-22T00:04:35;7.78;;;5.68;;
29878;SDS011;16752;53.364;-1.488;2023-06-22T00:07:18;6.28;;;5.25;;
29878;SDS011;16752;53.364;-1.488;2023-06-22T00:10:03;5.22;;;4.65;;
29878;SDS011;16752;53.364;-1.488;2023-06-22T00:12:47;7.25;;;5.47;;
29878;SDS011;16752;53.364;-1.488;2023-06-22T00:15:31;5.97;;;5.25;;
29878;SDS011;16752;53.364;-1.488;2023-06-22T00:18:15;5.40;;;4.70;;
29878;SDS011;16752;53.364;-1.488;2023-06-22T00:20:59;5.82;;;4.95;;
29878;SDS011;16752;53.364;-1.488;2023-06-22T00:23:43;7.25;;;5.32;;
29878;SDS011;16752;53.364;-1.488;2023-06-22T00:26:27;5.72;;;5.20;;
29878;SDS011;16752;53.364;-1.488;2023-06-22T00:29:11;6.55;;;5.00;;
29878;SDS011;16752;53.364;-1.488;2023-06-22T00:31:55;7.90;;;5.53;;
29878;SDS011;16752;53.364;-1.488;2023-06-22T00:34:39;5.60;;;4.95;;
29878;SDS011;16752;53.364;-1.488;2023-06-22T00:37:23;7.18;;;5.03;;
29878;SDS011;16752;53.364;-1.488;2023-06-22T00:40:09;8.52;;;6.07;;
29878;SDS011;16752;53.364;-1.488;2023-06-22T00:42:56;6.97;;;5.57;;
29878;SDS011;16752;53.364;-1.488;2023-06-22T00:45:41;7.13;;;5.53;;
29878;SDS011;16752;53.364;-1.488;2023-06-22T00:48:25;6.30;;;5.53;;
29878;SDS011;16752;53.364;-1.488;2023-06-22T00:51:09;5.93;;;5.30;;
29878;SDS011;16752;53.364;-1.488;2023-06-22T00:53:54;6.47;;;5.68;;
29878;SDS011;16752;53.364;-1.488;2023-06-22T00:56:39;9.25;;;6.00;;
29878;SDS011;16752;53.364;-1.488;2023-06-22T00:59:24;6.35;;;5.10;;
29878;SDS011;16752;53.364;-1.488;2023-06-22T01:02:09;6.07;;;5.47;;
29878;SDS011;16752;53.364;-1.488;2023-06-22T01:04:54;7.05;;;6.38;;
29878;SDS011;16752;53.364;-1.488;2023-06-22T01:07:49;7.40;;;6.15;;
29878;SDS011;16752;53.364;-1.488;2023-06-22T01:16:40;7.75;;;5.53;;
29878;SDS011;16752;53.364;-1.488;2023-06-22T01:19:45;7.72;;;5.78;;
29878;SDS011;16752;53.364;-1.488;2023-06-22T01:22:33;6.50;;;5.90;;
29878;SDS011;16752;53.364;-1.488;2023-06-22T01:25:43;7.88;;;5.72;;
29878;SDS011;16752;53.364;-1.488;2023-06-22T01:31:30;6.95;;;6.25;;
29878;SDS011;16752;53.364;-1.488;2023-06-22T01:34:15;7.25;;;5.85;;
29878;SDS011;16752;53.364;-1.488;2023-06-22T01:37:01;6.38;;;5.68;;
29878;SDS011;16752;53.364;-1.488;2023-06-22T01:39:46;5.88;;;5.38;;
29878;SDS011;16752;53.364;-1.488;2023-06-22T01:42:31;8.00;;;6.22;;
29878;SDS011;16752;53.364;-1.488;2023-06-22T01:45:15;8.38;;;5.70;;
29878;SDS011;16752;53.364;-1.488;2023-06-22T01:48:00;7.60;;;6.47;;
29878;SDS011;16752;53.364;-1.488;2023-06-22T01:50:44;9.77;;;6.38;;
29878;SDS011;16752;53.364;-1.488;2023-06-22T01:53:28;8.52;;;5.97;;
29878;SDS011;16752;53.364;-1.488;2023-06-22T01:56:12;7.47;;;5.80;;
29878;SDS011;16752;53.364;-1.488;2023-06-22T01:59:15;6.95;;;5.50;;
29878;SDS011;16752;53.364;-1.488;2023-06-22T02:02:04;6.55;;;5.63;;
29878;SDS011;16752;53.364;-1.488;2023-06-22T02:04:52;8.02;;;5.72;;
29878;SDS011;16752;53.364;-1.488;2023-06-22T02:07:49;6.30;;;5.50;;
29878;SDS011;16752;53.364;-1.488;2023-06-22T02:10:50;7.35;;;5.80;;
29878;SDS011;16752;53.364;-1.488;2023-06-22T02:13:36;5.43;;;4.93;;
29878;SDS011;16752;53.364;-1.488;2023-06-22T02:16:21;9.70;;;5.93;;
29878;SDS011;16752;53.364;-1.488;2023-06-22T02:19:06;6.32;;;5.38;;
29878;SDS011;16752;53.364;-1.488;2023-06-22T02:21:50;7.93;;;5.88;;
29878;SDS011;16752;53.364;-1.488;2023-06-22T02:24:34;7.22;;;5.10;;
29878;SDS011;16752;53.364;-1.488;2023-06-22T02:27:18;5.85;;;5.07;;
29878;SDS011;16752;53.364;-1.488;2023-06-22T02:30:02;7.22;;;5.53;;
29878;SDS011;16752;53.364;-1.488;2023-06-22T02:32:47;6.18;;;5.57;;
29878;SDS011;16752;53.364;-1.488;2023-06-22T02:35:31;7.93;;;5.45;;
29878;SDS011;16752;53.364;-1.488;2023-06-22T02:38:15;7.13;;;5.72;;
29878;SDS011;16752;53.364;-1.488;2023-06-22T02:40:59;7.53;;;6.30;;
29878;SDS011;16752;53.364;-1.488;2023-06-22T02:43:44;6.60;;;5.95;;
29878;SDS011;16752;53.364;-1.488;2023-06-22T02:46:29;5.90;;;5.30;;
29878;SDS011;16752;53.364;-1.488;2023-06-22T02:49:13;6.82;;;5.65;;
29878;SDS011;16752;53.364;-1.488;2023-06-22T02:51:57;5.95;;;5.45;;
29878;SDS011;16752;53.364;-1.488;2023-06-22T02:54:41;6.20;;;5.60;;
29878;SDS011;16752;53.364;-1.488;2023-06-22T02:57:25;8.30;;;5.53;;
29878;SDS011;16752;53.364;-1.488;2023-06-22T03:00:09;7.30;;;5.13;;
29878;SDS011;16752;53.364;-1.488;2023-06-22T03:03:00;6.80;;;5.45;;
29878;SDS011;16752;53.364;-1.488;2023-06-22T03:05:44;7.75;;;6.22;;
29878;SDS011;16752;53.364;-1.488;2023-06-22T03:08:28;8.98;;;6.32;;
29878;SDS011;16752;53.364;-1.488;2023-06-22T03:11:12;7.30;;;5.00;;
29878;SDS011;16752;53.364;-1.488;2023-06-22T03:13:56;6.30;;;5.70;;
29878;SDS011;16752;53.364;-1.488;2023-06-22T03:16:41;5.70;;;5.20;;
29878;SDS011;16752;53.364;-1.488;2023-06-22T03:19:25;7.63;;;6.18;;
29878;SDS011;16752;53.364;-1.488;2023-06-22T03:22:09;5.63;;;5.13;;
29878;SDS011;16752;53.364;-1.488;2023-06-22T03:24:53;6.15;;;5.53;;
29878;SDS011;16752;53.364;-1.488;2023-06-22T03:27:37;7.43;;;5.30;;
29878;SDS011;16752;53.364;-1.488;2023-06-22T03:30:21;7.28;;;5.53;;
29878;SDS011;16752;53.364;-1.488;2023-06-22T03:33:05;8.85;;;6.15;;
29878;SDS011;16752;53.364;-1.488;2023-06-22T03:35:49;7.47;;;5.30;;
29878;SDS011;16752;53.364;-1.488;2023-06-22T03:38:33;7.53;;;5.53;;
29878;SDS011;16752;53.364;-1.488;2023-06-22T03:41:17;6.43;;;5.78;;
29878;SDS011;16752;53.364;-1.488;2023-06-22T03:44:01;6.18;;;5.57;;
29878;SDS011;16752;53.364;-1.488;2023-06-22T03:46:45;8.10;;;5.65;;
29878;SDS011;16752;53.364;-1.488;2023-06-22T03:49:29;5.53;;;4.85;;
29878;SDS011;16752;53.364;-1.488;2023-06-22T03:52:13;8.45;;;5.32;;
29878;SDS011;16752;53.364;-1.488;2023-06-22T03:54:57;5.47;;;4.97;;
29878;SDS011;16752;53.364;-1.488;2023-06-22T03:57:41;7.95;;;5.80;;
29878;SDS011;16752;53.364;-1.488;2023-06-22T04:00:25;7.70;;;6.28;;
29878;SDS011;16752;53.364;-1.488;2023-06-22T04:03:09;8.00;;;5.13;;
29878;SDS011;16752;53.364;-1.488;2023-06-22T04:05:55;6.55;;;5.80;;
29878;SDS011;16752;53.364;-1.488;2023-06-22T04:08:39;7.82;;;5.68;;
29878;SDS011;16752;53.364;-1.488;2023-06-22T04:11:24;9.73;;;6.13;;
29878;SDS011;16752;53.364;-1.488;2023-06-22T04:14:08;6.15;;;5.55;;
29878;SDS011;16752;53.364;-1.488;2023-06-22T04:16:52;5.57;;;5.07;;
29878;SDS011;16752;53.364;-1.488;2023-06-22T04:19:36;8.13;;;5.55;;
29878;SDS011;16752;53.364;-1.488;2023-06-22T04:22:20;6.90;;;5.82;;
29878;SDS011;16752;53.364;-1.488;2023-06-22T04:25:05;6.93;;;5.15;;
29878;SDS011;16752;53.364;-1.488;2023-06-22T04:27:51;6.78;;;5.60;;
29878;SDS011;16752;53.364;-1.488;2023-06-22T04:30:35;7.13;;;5.60;;
29878;SDS011;16752;53.364;-1.488;2023-06-22T04:33:19;7.15;;;6.45;;
29878;SDS011;16752;53.364;-1.488;2023-06-22T04:36:03;6.38;;;5.78;;
29878;SDS011;16752;53.364;-1.488;2023-06-22T04:38:47;8.27;;;6.22;;
29878;SDS011;16752;53.364;-1.488;2023-06-22T04:41:32;7.97;;;6.07;;
29878;SDS011;16752;53.364;-1.488;2023-06-22T04:44:25;6.30;;;5.80;;
29878;SDS011;16752;53.364;-1.488;2023-06-22T04:47:10;6.55;;;5.30;;
29878;SDS011;16752;53.364;-1.488;2023-06-22T04:49:54;7.10;;;5.38;;
29878;SDS011;16752;53.364;-1.488;2023-06-22T04:52:38;6.63;;;5.70;;
29878;SDS011;16752;53.364;-1.488;2023-06-22T04:55:23;6.43;;;5.82;;
29878;SDS011;16752;53.364;-1.488;2023-06-22T04:58:09;7.93;;;5.78;;
29878;SDS011;16752;53.364;-1.488;2023-06-22T05:00:56;8.55;;;5.70;;
29878;SDS011;16752;53.364;-1.488;2023-06-22T05:03:41;6.45;;;5.75;;
29878;SDS011;16752;53.364;-1.488;2023-06-22T05:06:25;5.78;;;5.13;;
29878;SDS011;16752;53.364;-1.488;2023-06-22T05:09:09;6.65;;;5.60;;
29878;SDS011;16752;53.364;-1.488;2023-06-22T05:11:55;6.78;;;6.05;;
29878;SDS011;16752;53.364;-1.488;2023-06-22T05:14:43;6.05;;;5.25;;
29878;SDS011;16752;53.364;-1.488;2023-06-22T05:17:27;7.05;;;5.78;;
29878;SDS011;16752;53.364;-1.488;2023-06-22T05:20:11;7.60;;;6.07;;
29878;SDS011;16752;53.364;-1.488;2023-06-22T05:22:56;8.57;;;5.90;;
29878;SDS011;16752;53.364;-1.488;2023-06-22T05:25:40;6.68;;;6.07;;
29878;SDS011;16752;53.364;-1.488;2023-06-22T05:28:24;7.00;;;6.13;;
29878;SDS011;16752;53.364;-1.488;2023-06-22T05:31:08;6.32;;;5.68;;
29878;SDS011;16752;53.364;-1.488;2023-06-22T05:33:56;8.00;;;6.57;;
29878;SDS011;16752;53.364;-1.488;2023-06-22T05:36:43;9.38;;;5.75;;
29878;SDS011;16752;53.364;-1.488;2023-06-22T05:39:27;11.88;;;7.63;;
29878;SDS011;16752;53.364;-1.488;2023-06-22T05:42:11;9.13;;;6.55;;
29878;SDS011;16752;53.364;-1.488;2023-06-22T05:44:55;6.15;;;5.60;;
29878;SDS011;16752;53.364;-1.488;2023-06-22T05:47:40;8.70;;;6.70;;
29878;SDS011;16752;53.364;-1.488;2023-06-22T05:50:24;8.02;;;6.90;;
29878;SDS011;16752;53.364;-1.488;2023-06-22T05:53:08;7.78;;;6.97;;
29878;SDS011;16752;53.364;-1.488;2023-06-22T05:55:52;7.00;;;6.30;;
29878;SDS011;16752;53.364;-1.488;2023-06-22T05:58:36;8.38;;;6.53;;
29878;SDS011;16752;53.364;-1.488;2023-06-22T06:01:20;7.05;;;5.97;;
29878;SDS011;16752;53.364;-1.488;2023-06-22T06:04:04;7.82;;;5.97;;
29878;SDS011;16752;53.364;-1.488;2023-06-22T06:06:48;6.25;;;5.55;;
29878;SDS011;16752;53.364;-1.488;2023-06-22T06:09:32;6.80;;;5.10;;
29878;SDS011;16752;53.364;-1.488;2023-06-22T06:12:16;5.60;;;4.68;;
29878;SDS011;16752;53.364;-1.488;2023-06-22T06:15:00;5.32;;;4.78;;
29878;SDS011;16752;53.364;-1.488;2023-06-22T06:17:50;5.22;;;4.72;;
29878;SDS011;16752;53.364;-1.488;2023-06-22T06:20:36;5.13;;;4.15;;
29878;SDS011;16752;53.364;-1.488;2023-06-22T06:23:20;6.57;;;4.70;;
29878;SDS011;16752;53.364;-1.488;2023-06-22T06:26:05;7.43;;;4.78;;
29878;SDS011;16752;53.364;-1.488;2023-06-22T06:28:50;5.10;;;4.18;;
29878;SDS011;16752;53.364;-1.488;2023-06-22T06:31:34;8.80;;;4.63;;
29878;SDS011;16752;53.364;-1.488;2023-06-22T06:34:19;5.35;;;4.50;;
29878;SDS011;16752;53.364;-1.488;2023-06-22T06:37:03;4.57;;;4.18;;
29878;SDS011;16752;53.364;-1.488;2023-06-22T06:39:47;5.47;;;3.97;;
29878;SDS011;16752;53.364;-1.488;2023-06-22T06:42:31;4.63;;;4.22;;
29878;SDS011;16752;53.364;-1.488;2023-06-22T06:45:16;6.95;;;4.68;;
29878;SDS011;16752;53.364;-1.488;2023-06-22T06:48:01;5.00;;;4.35;;
29878;SDS011;16752;53.364;-1.488;2023-06-22T06:50:46;5.07;;;4.60;;
29878;SDS011;16752;53.364;-1.488;2023-06-22T06:53:30;7.72;;;4.68;;
29878;SDS011;16752;53.364;-1.488;2023-06-22T06:56:14;4.47;;;3.67;;
29878;SDS011;16752;53.364;-1.488;2023-06-22T06:58:58;5.03;;;4.03;;
29878;SDS011;16752;53.364;-1.488;2023-06-22T07:01:42;5.97;;;3.95;;
29878;SDS011;16752;53.364;-1.488;2023-06-22T07:04:28;4.53;;;3.70;;
29878;SDS011;16752;53.364;-1.488;2023-06-22T07:07:12;6.75;;;4.30;;
29878;SDS011;16752;53.364;-1.488;2023-06-22T07:09:56;4.95;;;3.58;;
29878;SDS011;16752;53.364;-1.488;2023-06-22T07:12:40;4.30;;;3.38;;
29878;SDS011;16752;53.364;-1.488;2023-06-22T07:15:24;4.05;;;3.67;;
29878;SDS011;16752;53.364;-1.488;2023-06-22T07:18:08;4.43;;;3.80;;
29878;SDS011;16752;53.364;-1.488;2023-06-22T07:20:52;5.55;;;4.18;;
29878;SDS011;16752;53.364;-1.488;2023-06-22T07:23:36;4.88;;;3.67;;
29878;SDS011;16752;53.364;-1.488;2023-06-22T07:26:20;5.75;;;4.18;;
29878;SDS011;16752;53.364;-1.488;2023-06-22T07:29:04;4.80;;;3.75;;
29878;SDS011;16752;53.364;-1.488;2023-06-22T07:31:48;5.55;;;3.88;;
29878;SDS011;16752;53.364;-1.488;2023-06-22T07:34:35;4.13;;;3.72;;
29878;SDS011;16752;53.364;-1.488;2023-06-22T07:37:19;4.80;;;3.67;;
29878;SDS011;16752;53.364;-1.488;2023-06-22T07:40:04;4.50;;;3.85;;
29878;SDS011;16752;53.364;-1.488;2023-06-22T07:42:50;5.00;;;3.58;;
29878;SDS011;16752;53.364;-1.488;2023-06-22T07:45:39;7.65;;;3.78;;
29878;SDS011;16752;53.364;-1.488;2023-06-22T07:48:25;5.00;;;4.20;;
29878;SDS011;16752;53.364;-1.488;2023-06-22T07:51:09;4.57;;;3.80;;
29878;SDS011;16752;53.364;-1.488;2023-06-22T07:53:56;6.40;;;3.95;;
29878;SDS011;16752;53.364;-1.488;2023-06-22T07:56:43;5.45;;;3.88;;
29878;SDS011;16752;53.364;-1.488;2023-06-22T07:59:27;4.00;;;3.60;;
29878;SDS011;16752;53.364;-1.488;2023-06-22T08:02:11;7.28;;;3.50;;
29878;SDS011;16752;53.364;-1.488;2023-06-22T08:04:55;6.55;;;3.72;;
29878;SDS011;16752;53.364;-1.488;2023-06-22T08:07:41;3.95;;;3.38;;
29878;SDS011;16752;53.364;-1.488;2023-06-22T08:10:27;10.02;;;4.88;;
29878;SDS011;16752;53.364;-1.488;2023-06-22T08:13:13;5.85;;;3.88;;
29878;SDS011;16752;53.364;-1.488;2023-06-22T08:15:57;6.57;;;3.40;;
29878;SDS011;16752;53.364;-1.488;2023-06-22T08:18:41;7.40;;;3.83;;
29878;SDS011;16752;53.364;-1.488;2023-06-22T08:21:25;6.57;;;3.95;;
29878;SDS011;16752;53.364;-1.488;2023-06-22T08:24:09;5.53;;;4.32;;
29878;SDS011;16752;53.364;-1.488;2023-06-22T08:26:53;6.07;;;3.97;;
29878;SDS011;16752;53.364;-1.488;2023-06-22T08:29:37;6.97;;;4.47;;
29878;SDS011;16752;53.364;-1.488;2023-06-22T08:32:31;7.32;;;4.18;;
29878;SDS011;16752;53.364;-1.488;2023-06-22T08:35:18;6.85;;;4.05;;
29878;SDS011;16752;53.364;-1.488;2023-06-22T08:38:02;3.90;;;3.22;;
29878;SDS011;16752;53.364;-1.488;2023-06-22T08:40:46;6.03;;;4.13;;
29878;SDS011;16752;53.364;-1.488;2023-06-22T08:43:30;4.55;;;3.92;;
29878;SDS011;16752;53.364;-1.488;2023-06-22T08:46:20;9.70;;;4.68;;
29878;SDS011;16752;53.364;-1.488;2023-06-22T08:49:13;7.10;;;4.25;;
29878;SDS011;16752;53.364;-1.488;2023-06-22T08:51:57;4.38;;;3.97;;
29878;SDS011;16752;53.364;-1.488;2023-06-22T08:54:41;9.55;;;5.53;;
29878;SDS011;16752;53.364;-1.488;2023-06-22T08:57:26;11.95;;;6.28;;
29878;SDS011;16752;53.364;-1.488;2023-06-22T09:00:11;8.13;;;4.70;;
29878;SDS011;16752;53.364;-1.488;2023-06-22T09:03:03;6.47;;;3.90;;
29878;SDS011;16752;53.364;-1.488;2023-06-22T09:05:48;7.05;;;4.95;;
29878;SDS011;16752;53.364;-1.488;2023-06-22T09:08:32;6.32;;;4.43;;
29878;SDS011;16752;53.364;-1.488;2023-06-22T09:11:16;6.10;;;4.72;;
29878;SDS011;16752;53.364;-1.488;2023-06-22T09:14:00;7.00;;;4.53;;
29878;SDS011;16752;53.364;-1.488;2023-06-22T09:16:45;6.93;;;4.28;;
29878;SDS011;16752;53.364;-1.488;2023-06-22T09:19:29;7.03;;;4.57;;
29878;SDS011;16752;53.364;-1.488;2023-06-22T09:22:13;4.30;;;3.90;;
29878;SDS011;16752;53.364;-1.488;2023-06-22T09:24:57;5.78;;;4.38;;
29878;SDS011;16752;53.364;-1.488;2023-06-22T09:27:43;4.00;;;3.55;;
29878;SDS011;16752;53.364;-1.488;2023-06-22T09:30:27;6.45;;;4.65;;
29878;SDS011;16752;53.364;-1.488;2023-06-22T09:33:11;7.05;;;4.80;;
29878;SDS011;16752;53.364;-1.488;2023-06-22T09:35:55;5.05;;;4.38;;
29878;SDS011;16752;53.364;-1.488;2023-06-22T09:38:39;5.82;;;4.50;;
29878;SDS011;16752;53.364;-1.488;2023-06-22T09:41:24;6.75;;;4.68;;
29878;SDS011;16752;53.364;-1.488;2023-06-22T09:44:08;6.43;;;4.78;;
29878;SDS011;16752;53.364;-1.488;2023-06-22T09:46:52;5.18;;;4.15;;
29878;SDS011;16752;53.364;-1.488;2023-06-22T09:49:37;6.53;;;4.88;;
29878;SDS011;16752;53.364;-1.488;2023-06-22T09:52:21;6.30;;;5.03;;
29878;SDS011;16752;53.364;-1.488;2023-06-22T09:55:05;5.95;;;4.65;;
29878;SDS011;16752;53.364;-1.488;2023-06-22T09:57:50;7.88;;;4.60;;
29878;SDS011;16752;53.364;-1.488;2023-06-22T10:00:34;9.07;;;5.15;;
29878;SDS011;16752;53.364;-1.488;2023-06-22T10:03:18;5.53;;;4.28;;
29878;SDS011;16752;53.364;-1.488;2023-06-22T10:06:02;6.93;;;4.30;;
29878;SDS011;16752;53.364;-1.488;2023-06-22T10:08:46;5.72;;;4.60;;
29878;SDS011;16752;53.364;-1.488;2023-06-22T10:11:32;20.55;;;6.15;;
29878;SDS011;16752;53.364;-1.488;2023-06-22T10:14:18;8.30;;;4.45;;
29878;SDS011;16752;53.364;-1.488;2023-06-22T10:17:03;6.45;;;4.40;;
29878;SDS011;16752;53.364;-1.488;2023-06-22T10:19:48;7.43;;;5.10;;
29878;SDS011;16752;53.364;-1.488;2023-06-22T10:22:32;9.75;;;5.10;;
29878;SDS011;16752;53.364;-1.488;2023-06-22T10:25:19;7.88;;;4.93;;
29878;SDS011;16752;53.364;-1.488;2023-06-22T10:28:11;10.30;;;5.65;;
29878;SDS011;16752;53.364;-1.488;2023-06-22T10:34:11;7.05;;;5.03;;
29878;SDS011;16752;53.364;-1.488;2023-06-22T10:40:31;8.57;;;5.57;;
29878;SDS011;16752;53.364;-1.488;2023-06-22T10:43:16;8.03;;;6.43;;
29878;SDS011;16752;53.364;-1.488;2023-06-22T10:46:06;7.55;;;6.57;;
29878;SDS011;16752;53.364;-1.488;2023-06-22T10:52:31;9.68;;;7.55;;
29878;SDS011;16752;53.364;-1.488;2023-06-22T10:55:15;8.50;;;5.75;;
29878;SDS011;16752;53.364;-1.488;2023-06-22T10:57:59;6.30;;;5.65;;
29878;SDS011;16752;53.364;-1.488;2023-06-22T11:00:45;8.95;;;6.85;;
29878;SDS011;16752;53.364;-1.488;2023-06-22T11:03:30;9.50;;;6.53;;
29878;SDS011;16752;53.364;-1.488;2023-06-22T11:06:24;10.48;;;6.82;;
29878;SDS011;16752;53.364;-1.488;2023-06-22T11:12:54;9.65;;;5.93;;
29878;SDS011;16752;53.364;-1.488;2023-06-22T11:15:39;8.82;;;5.90;;
29878;SDS011;16752;53.364;-1.488;2023-06-22T11:18:48;10.75;;;6.35;;
29878;SDS011;16752;53.364;-1.488;2023-06-22T11:22:02;10.23;;;7.60;;
29878;SDS011;16752;53.364;-1.488;2023-06-22T11:24:47;10.65;;;6.35;;
29878;SDS011;16752;53.364;-1.488;2023-06-22T11:31:36;12.73;;;7.45;;
29878;SDS011;16752;53.364;-1.488;2023-06-22T11:39:57;12.25;;;7.72;;
29878;SDS011;16752;53.364;-1.488;2023-06-22T11:42:59;9.45;;;7.28;;
29878;SDS011;16752;53.364;-1.488;2023-06-22T11:45:52;12.20;;;6.53;;
29878;SDS011;16752;53.364;-1.488;2023-06-22T11:49:05;8.35;;;7.07;;
29878;SDS011;16752;53.364;-1.488;2023-06-22T11:51:58;9.48;;;6.30;;
29878;SDS011;16752;53.364;-1.488;2023-06-22T11:54:45;9.77;;;6.85;;
29878;SDS011;16752;53.364;-1.488;2023-06-22T11:57:37;13.85;;;8.07;;
29878;SDS011;16752;53.364;-1.488;2023-06-22T12:00:22;12.15;;;7.88;;
29878;SDS011;16752;53.364;-1.488;2023-06-22T12:03:08;9.77;;;7.55;;
29878;SDS011;16752;53.364;-1.488;2023-06-22T12:05:57;11.77;;;8.23;;
29878;SDS011;16752;53.364;-1.488;2023-06-22T12:08:44;9.38;;;7.18;;
29878;SDS011;16752;53.364;-1.488;2023-06-22T12:11:40;8.35;;;6.35;;
29878;SDS011;16752;53.364;-1.488;2023-06-22T12:14:33;9.23;;;6.93;;
29878;SDS011;16752;53.364;-1.488;2023-06-22T12:21:09;8.40;;;7.35;;
29878;SDS011;16752;53.364;-1.488;2023-06-22T12:24:08;12.45;;;7.00;;
29878;SDS011;16752;53.364;-1.488;2023-06-22T12:27:16;10.43;;;6.75;;
29878;SDS011;16752;53.364;-1.488;2023-06-22T12:30:02;7.65;;;6.45;;
29878;SDS011;16752;53.364;-1.488;2023-06-22T12:32:53;11.85;;;7.82;;
29878;SDS011;16752;53.364;-1.488;2023-06-22T12:35:37;12.60;;;7.95;;
29878;SDS011;16752;53.364;-1.488;2023-06-22T12:38:23;11.65;;;7.70;;
29878;SDS011;16752;53.364;-1.488;2023-06-22T12:41:13;10.30;;;7.75;;
29878;SDS011;16752;53.364;-1.488;2023-06-22T12:44:31;8.48;;;5.72;;
29878;SDS011;16752;53.364;-1.488;2023-06-22T12:47:08;5.20;;;3.70;;
29878;SDS011;16752;53.364;-1.488;2023-06-22T12:50:08;3.90;;;3.58;;
29878;SDS011;16752;53.364;-1.488;2023-06-22T12:52:52;4.10;;;3.50;;
29878;SDS011;16752;53.364;-1.488;2023-06-22T12:55:37;5.22;;;3.10;;
29878;SDS011;16752;53.364;-1.488;2023-06-22T12:58:31;4.25;;;3.90;;
29878;SDS011;16752;53.364;-1.488;2023-06-22T13:01:16;5.47;;;4.03;;
29878;SDS011;16752;53.364;-1.488;2023-06-22T13:04:09;5.45;;;4.22;;
29878;SDS011;16752;53.364;-1.488;2023-06-22T13:10:35;4.40;;;3.90;;
29878;SDS011;16752;53.364;-1.488;2023-06-22T13:13:19;5.40;;;4.20;;
29878;SDS011;16752;53.364;-1.488;2023-06-22T13:16:03;5.88;;;4.13;;
29878;SDS011;16752;53.364;-1.488;2023-06-22T13:18:47;5.18;;;3.60;;
29878;SDS011;16752;53.364;-1.488;2023-06-22T13:21:31;4.00;;;3.60;;
29878;SDS011;16752;53.364;-1.488;2023-06-22T13:24:17;5.18;;;4.00;;
29878;SDS011;16752;53.364;-1.488;2023-06-22T13:27:01;3.75;;;3.45;;
29878;SDS011;16752;53.364;-1.488;2023-06-22T13:29:45;4.28;;;3.65;;
29878;SDS011;16752;53.364;-1.488;2023-06-22T13:32:32;4.53;;;3.58;;
29878;SDS011;16752;53.364;-1.488;2023-06-22T13:35:16;4.50;;;3.70;;
29878;SDS011;16752;53.364;-1.488;2023-06-22T13:38:01;4.38;;;3.88;;
29878;SDS011;16752;53.364;-1.488;2023-06-22T13:40:45;3.80;;;3.50;;
29878;SDS011;16752;53.364;-1.488;2023-06-22T13:43:31;4.18;;;3.78;;
29878;SDS011;16752;53.364;-1.488;2023-06-22T13:46:18;3.05;;;2.75;;
29878;SDS011;16752;53.364;-1.488;2023-06-22T13:49:04;4.18;;;2.97;;
29878;SDS011;16752;53.364;-1.488;2023-06-22T13:51:56;3.30;;;3.00;;
29878;SDS011;16752;53.364;-1.488;2023-06-22T13:54:41;2.90;;;2.65;;
29878;SDS011;16752;53.364;-1.488;2023-06-22T13:57:24;2.92;;;2.63;;
29878;SDS011;16752;53.364;-1.488;2023-06-22T14:00:11;5.95;;;3.70;;
29878;SDS011;16752;53.364;-1.488;2023-06-22T14:03:01;5.15;;;2.88;;
29878;SDS011;16752;53.364;-1.488;2023-06-22T14:05:45;3.30;;;3.00;;
29878;SDS011;16752;53.364;-1.488;2023-06-22T14:08:36;3.83;;;3.00;;
29878;SDS011;16752;53.364;-1.488;2023-06-22T14:11:25;4.25;;;2.83;;
29878;SDS011;16752;53.364;-1.488;2023-06-22T14:14:18;2.83;;;2.60;;
29878;SDS011;16752;53.364;-1.488;2023-06-22T14:17:03;3.63;;;2.80;;
29878;SDS011;16752;53.364;-1.488;2023-06-22T14:19:54;4.75;;;2.97;;
29878;SDS011;16752;53.364;-1.488;2023-06-22T14:22:39;3.10;;;2.80;;
29878;SDS011;16752;53.364;-1.488;2023-06-22T14:25:24;3.08;;;2.85;;
29878;SDS011;16752;53.364;-1.488;2023-06-22T14:28:11;4.28;;;3.15;;
29878;SDS011;16752;53.364;-1.488;2023-06-22T14:30:55;4.18;;;2.80;;
29878;SDS011;16752;53.364;-1.488;2023-06-22T14:37:27;3.42;;;2.50;;
29878;SDS011;16752;53.364;-1.488;2023-06-22T14:40:11;5.15;;;3.40;;
29878;SDS011;16752;53.364;-1.488;2023-06-22T14:42:55;4.05;;;3.30;;
29878;SDS011;16752;53.364;-1.488;2023-06-22T14:45:42;3.10;;;2.80;;
29878;SDS011;16752;53.364;-1.488;2023-06-22T14:48:34;3.80;;;2.97;;
29878;SDS011;16752;53.364;-1.488;2023-06-22T14:55:04;3.53;;;3.08;;
29878;SDS011;16752;53.364;-1.488;2023-06-22T14:58:00;3.15;;;2.83;;
29878;SDS011;16752;53.364;-1.488;2023-06-22T15:00:45;4.78;;;3.17;;
29878;SDS011;16752;53.364;-1.488;2023-06-22T15:11:38;3.50;;;2.97;;
29878;SDS011;16752;53.364;-1.488;2023-06-22T15:14:23;3.10;;;2.83;;
29878;SDS011;16752;53.364;-1.488;2023-06-22T15:17:22;3.17;;;2.88;;
29878;SDS011;16752;53.364;-1.488;2023-06-22T15:20:40;3.40;;;3.10;;
29878;SDS011;16752;53.364;-1.488;2023-06-22T15:23:31;4.10;;;3.10;;
29878;SDS011;16752;53.364;-1.488;2023-06-22T15:26:24;3.85;;;3.20;;
29878;SDS011;16752;53.364;-1.488;2023-06-22T15:32:18;3.67;;;3.35;;
29878;SDS011;16752;53.364;-1.488;2023-06-22T15:38:40;4.78;;;3.42;;
29878;SDS011;16752;53.364;-1.488;2023-06-22T15:41:24;4.00;;;3.70;;
29878;SDS011;16752;53.364;-1.488;2023-06-22T15:44:08;7.13;;;4.20;;
29878;SDS011;16752;53.364;-1.488;2023-06-22T15:46:53;9.15;;;3.90;;
29878;SDS011;16752;53.364;-1.488;2023-06-22T15:50:00;4.10;;;3.70;;
29878;SDS011;16752;53.364;-1.488;2023-06-22T16:16:25;6.93;;;3.53;;
29878;SDS011;16752;53.364;-1.488;2023-06-22T16:30:31;5.35;;;3.10;;
29878;SDS011;16752;53.364;-1.488;2023-06-22T16:33:32;5.85;;;3.70;;
29878;SDS011;16752;53.364;-1.488;2023-06-22T16:40:26;6.57;;;3.17;;
29878;SDS011;16752;53.364;-1.488;2023-06-22T16:43:10;4.18;;;3.50;;
29878;SDS011;16752;53.364;-1.488;2023-06-22T16:46:12;4.63;;;3.42;;
29878;SDS011;16752;53.364;-1.488;2023-06-22T16:49:14;4.75;;;3.75;;
29878;SDS011;16752;53.364;-1.488;2023-06-22T16:52:52;4.20;;;3.80;;
29878;SDS011;16752;53.364;-1.488;2023-06-22T16:55:44;4.25;;;3.85;;
29878;SDS011;16752;53.364;-1.488;2023-06-22T16:58:36;4.05;;;3.55;;
29878;SDS011;16752;53.364;-1.488;2023-06-22T17:05:09;4.03;;;3.58;;
29878;SDS011;16752;53.364;-1.488;2023-06-22T17:07:57;7.45;;;3.80;;
29878;SDS011;16752;53.364;-1.488;2023-06-22T17:14:13;4.18;;;3.55;;
29878;SDS011;16752;53.364;-1.488;2023-06-22T17:16:57;4.65;;;4.00;;
29878;SDS011;16752;53.364;-1.488;2023-06-22T17:19:59;4.88;;;4.05;;
29878;SDS011;16752;53.364;-1.488;2023-06-22T17:22:50;7.60;;;3.90;;
29878;SDS011;16752;53.364;-1.488;2023-06-22T17:26:03;3.63;;;3.30;;
29878;SDS011;16752;53.364;-1.488;2023-06-22T17:28:50;4.75;;;4.35;;
29878;SDS011;16752;53.364;-1.488;2023-06-22T17:31:47;6.40;;;3.63;;
29878;SDS011;16752;53.364;-1.488;2023-06-22T17:34:31;3.70;;;3.40;;
29878;SDS011;16752;53.364;-1.488;2023-06-22T17:37:21;5.18;;;3.17;;
29878;SDS011;16752;53.364;-1.488;2023-06-22T17:44:50;4.07;;;3.78;;
29878;SDS011;16752;53.364;-1.488;2023-06-22T18:04:04;5.60;;;4.38;;
29878;SDS011;16752;53.364;-1.488;2023-06-22T19:17:18;4.65;;;4.25;;
29878;SDS011;16752;53.364;-1.488;2023-06-22T19:20:06;6.55;;;4.53;;
29878;SDS011;16752;53.364;-1.488;2023-06-22T19:26:56;5.30;;;3.97;;
29878;SDS011;16752;53.364;-1.488;2023-06-22T19:29:51;4.88;;;4.20;;
29878;SDS011;16752;53.364;-1.488;2023-06-22T19:32:56;7.95;;;4.47;;
29878;SDS011;16752;53.364;-1.488;2023-06-22T19:39:36;6.45;;;5.40;;
29878;SDS011;16752;53.364;-1.488;2023-06-22T19:42:25;9.15;;;5.45;;
29878;SDS011;16752;53.364;-1.488;2023-06-22T19:50:55;7.33;;;6.33;;
29878;SDS011;16752;53.364;-1.488;2023-06-22T19:53:46;9.23;;;6.13;;
29878;SDS011;16752;53.364;-1.488;2023-06-22T19:56:34;8.50;;;5.93;;
29878;SDS011;16752;53.364;-1.488;2023-06-22T19:59:26;10.38;;;6.32;;
29878;SDS011;16752;53.364;-1.488;2023-06-22T20:02:14;8.32;;;6.57;;
29878;SDS011;16752;53.364;-1.488;2023-06-22T20:05:02;10.23;;;7.22;;